Terminal Aerodrome Forecast
Issued by NWS Jackson, MS

Home | Current Version | Previous Version | Text Only | Print | Product List | Glossary On
Versions: 1 2 3 4 5 6 7 8 9 10 11 12 13 14 15 16 17 18
142
FTUS44 KJAN 030547
TAFGLH
TAF
KGLH 030547Z 0306/0406 VRB04KT P6SM OVC060
     FM031500 36008KT P6SM BKN025
     FM032200 35008KT P6SM SCT025 BKN100=

USA.gov is the U.S. government's official web portal to all federal, state and local government web resources and services.